Time;durP1;ratioP1;P1;durP2;ratioP2;P2;SDS_P1;SDS_P2;PMS_P1;PMS_P2;Temp;Humidity;BMP_temperature;BMP_pressure;BME280_temperature;BME280_humidity;BME280_pressure;Samples;Min_cycle;Max_cycle;Signal;HPM_P1;HPM_P2
2022/04/04 00:01:09;;;;;;;;;;;-2.60;99.90;;;;;;4930832;29;19930;-71
2022/04/04 00:03:41;;;;;;;;;;;-2.70;99.90;;;;;;4942670;29;20296;-72
2022/04/04 00:06:13;;;;;;;;;;;-2.80;99.90;;;;;;4943048;29;19922;-71
2022/04/04 00:08:44;;;;;;;;;;;-2.80;99.90;;;;;;4937297;29;20278;-71
2022/04/04 00:11:16;;;;;;;;;;;-2.90;99.90;;;;;;4920541;28;19930;-71
2022/04/04 00:13:48;;;;;;;;;;;-2.80;99.90;;;;;;4933050;29;19936;-71
2022/04/04 00:16:20;;;;;;;;;;;-2.80;99.90;;;;;;4917670;29;20400;-71
2022/04/04 00:18:51;;;;;;;;;;;-2.80;99.90;;;;;;4901867;29;19929;-71
2022/04/04 00:21:23;;;;;;;;;;;-2.80;99.90;;;;;;4928219;29;19929;-71
2022/04/04 00:23:55;;;;;;;;;;;-2.70;99.90;;;;;;4933869;29;19969;-71
2022/04/04 00:26:26;;;;;;;;;;;-2.80;99.90;;;;;;4936894;29;20324;-71
2022/04/04 00:28:53;;;;;;;;;;;-2.70;99.90;;;;;;4918668;29;19922;-71
2022/04/04 00:31:20;;;;;;;;;;;-2.70;99.90;;;;;;4928355;29;19922;-71
2022/04/04 00:33:47;;;;;;;;;;;-2.60;99.90;;;;;;4919988;29;19923;-71
2022/04/04 00:36:18;;;;;;;;;;;-2.60;99.90;;;;;;4932219;29;19929;-71
2022/04/04 00:38:45;;;;;;;;;;;-2.60;99.90;;;;;;4919588;29;19922;-71
2022/04/04 00:41:15;;;;;;;;;;;-2.60;99.90;;;;;;4920029;29;19930;-71
2022/04/04 00:43:50;;;;;;;;;;;-2.60;99.90;;;;;;4939835;29;19926;-71
2022/04/04 00:46:21;;;;;;;;;;;-2.60;99.90;;;;;;4936583;29;19926;-71
2022/04/04 00:48:53;;;;;;;;;;;-2.60;99.90;;;;;;4935316;29;19929;-71
2022/04/04 00:51:24;;;;;;;;;;;-2.60;99.90;;;;;;4916459;29;20386;-71
2022/04/04 00:53:56;;;;;;;;;;;-2.60;99.90;;;;;;4941837;29;19922;-71
2022/04/04 00:56:28;;;;;;;;;;;-2.60;99.90;;;;;;4937285;29;19930;-71
2022/04/04 00:58:54;;;;;;;;;;;-2.60;99.90;;;;;;4916098;29;20318;-71
2022/04/04 01:01:26;;;;;;;;;;;-2.70;99.90;;;;;;4919373;29;19941;-71
2022/04/04 01:03:53;;;;;;;;;;;-2.70;99.90;;;;;;4947032;29;20443;-71
2022/04/04 01:06:24;;;;;;;;;;;-2.70;99.90;;;;;;4941451;29;19990;-71
2022/04/04 01:08:56;;;;;;;;;;;-2.70;99.90;;;;;;4933262;29;20294;-71
2022/04/04 01:11:28;;;;;;;;;;;-2.70;99.90;;;;;;4923135;29;19929;-72
2022/04/04 01:13:59;;;;;;;;;;;-2.80;99.90;;;;;;4940947;29;20287;-71
2022/04/04 01:16:32;;;;;;;;;;;-2.90;99.90;;;;;;4935292;29;19926;-71
2022/04/04 01:19:03;;;;;;;;;;;-2.80;99.90;;;;;;4931561;29;19970;-71
2022/04/04 01:21:35;;;;;;;;;;;-2.80;99.90;;;;;;4925438;29;19922;-71
2022/04/04 01:24:14;;;;;;;;;;;-2.90;99.90;;;;;;4932470;29;20006;-71
2022/04/04 01:26:46;;;;;;;;;;;-2.80;99.90;;;;;;4930552;29;19927;-72
2022/04/04 01:29:20;;;;;;;;;;;-2.80;99.90;;;;;;4930794;29;20047;-72
2022/04/04 01:31:52;;;;;;;;;;;-2.90;99.90;;;;;;4925174;29;19923;-72
2022/04/04 01:34:19;;;;;;;;;;;-2.80;99.90;;;;;;4945649;29;20202;-71
2022/04/04 01:36:46;;;;;;;;;;;-2.80;99.90;;;;;;4931433;28;19933;-71
2022/04/04 01:39:18;;;;;;;;;;;-2.90;99.90;;;;;;4915913;29;19962;-71
2022/04/04 01:41:51;;;;;;;;;;;-2.90;99.90;;;;;;4910680;29;20009;-71
2022/04/04 01:44:23;;;;;;;;;;;-2.90;99.90;;;;;;4940764;29;19929;-71
2022/04/04 01:46:55;;;;;;;;;;;-2.90;99.90;;;;;;4914850;29;20037;-71
2022/04/04 01:49:27;;;;;;;;;;;-2.90;99.90;;;;;;4916785;29;19966;-71
2022/04/04 01:51:58;;;;;;;;;;;-2.90;99.90;;;;;;4928477;29;19998;-71
2022/04/04 01:54:25;;;;;;;;;;;-2.90;99.90;;;;;;4927946;29;19933;-71
2022/04/04 01:56:52;;;;;;;;;;;-2.90;99.90;;;;;;4914273;29;20296;-71
2022/04/04 01:59:18;;;;;;;;;;;-2.90;99.90;;;;;;4914154;29;19923;-71
2022/04/04 02:01:51;;;;;;;;;;;-2.90;99.90;;;;;;4920711;29;19926;-71
2022/04/04 02:04:23;;;;;;;;;;;-3.00;99.90;;;;;;4929960;29;19926;-72
2022/04/04 02:06:50;;;;;;;;;;;-3.00;99.90;;;;;;4930451;29;20022;-71
2022/04/04 02:09:17;;;;;;;;;;;-3.10;99.90;;;;;;4914289;29;19923;-71
2022/04/04 02:11:44;;;;;;;;;;;-3.10;99.90;;;;;;4918910;29;19969;-72
2022/04/04 02:14:16;;;;;;;;;;;-3.10;99.90;;;;;;4925337;29;19934;-71
2022/04/04 02:16:43;;;;;;;;;;;-3.10;99.90;;;;;;4914041;29;19930;-71
2022/04/04 02:19:10;;;;;;;;;;;-3.10;99.90;;;;;;4914731;29;19933;-71
2022/04/04 02:21:41;;;;;;;;;;;-3.10;99.90;;;;;;4916722;29;19930;-71
2022/04/04 02:24:08;;;;;;;;;;;-3.10;99.90;;;;;;4931393;29;19931;-71
2022/04/04 02:26:40;;;;;;;;;;;-3.20;99.90;;;;;;4929711;29;19923;-71
2022/04/04 02:29:07;;;;;;;;;;;-3.20;99.90;;;;;;4913757;29;19927;-71
2022/04/04 02:31:38;;;;;;;;;;;-3.20;99.90;;;;;;4921472;29;19922;-71
2022/04/04 02:34:11;;;;;;;;;;;-3.20;99.90;;;;;;4917004;29;19990;-71
2022/04/04 02:36:43;;;;;;;;;;;-3.30;99.90;;;;;;4914096;29;19933;-71
2022/04/04 02:39:14;;;;;;;;;;;-3.30;99.90;;;;;;4913721;29;20329;-71
2022/04/04 02:41:41;;;;;;;;;;;-3.30;99.90;;;;;;4921339;29;19923;-71
2022/04/04 02:44:13;;;;;;;;;;;-3.30;99.90;;;;;;4917134;29;19922;-71
2022/04/04 02:46:39;;;;;;;;;;;-3.40;99.90;;;;;;4913607;29;19977;-71
2022/04/04 02:49:12;;;;;;;;;;;-3.40;99.90;;;;;;4913350;29;19930;-71
2022/04/04 02:51:43;;;;;;;;;;;-3.40;99.90;;;;;;4921859;29;20278;-71
2022/04/04 02:54:10;;;;;;;;;;;-3.40;99.90;;;;;;4943558;29;19953;-71
2022/04/04 02:56:42;;;;;;;;;;;-3.40;99.90;;;;;;4930937;29;19926;-71
2022/04/04 02:59:13;;;;;;;;;;;-3.50;99.90;;;;;;4913887;29;19923;-71
2022/04/04 03:01:41;;;;;;;;;;;-3.50;99.90;;;;;;4920675;29;20349;-71
2022/04/04 03:04:08;;;;;;;;;;;-3.50;99.90;;;;;;4926109;29;19932;-71
2022/04/04 03:06:36;;;;;;;;;;;-3.50;99.90;;;;;;4919263;29;19977;-72
2022/04/04 03:09:08;;;;;;;;;;;-3.50;99.90;;;;;;4914574;29;19970;-71
2022/04/04 03:11:39;;;;;;;;;;;-3.50;99.90;;;;;;4919962;29;20298;-71
2022/04/04 03:14:11;;;;;;;;;;;-3.50;99.90;;;;;;4935917;29;20018;-71
2022/04/04 03:16:38;;;;;;;;;;;-3.60;99.90;;;;;;4933412;29;20290;-71
2022/04/04 03:19:09;;;;;;;;;;;-3.50;99.90;;;;;;4929201;29;20328;-71
2022/04/04 03:21:41;;;;;;;;;;;-3.50;99.90;;;;;;4905586;29;19923;-71
2022/04/04 03:24:13;;;;;;;;;;;-3.60;99.90;;;;;;4935611;29;20293;-71
2022/04/04 03:26:44;;;;;;;;;;;-3.60;99.90;;;;;;4935424;29;19927;-71
2022/04/04 03:29:11;;;;;;;;;;;-3.60;99.90;;;;;;4929405;29;19969;-71
2022/04/04 03:31:38;;;;;;;;;;;-3.70;99.90;;;;;;4922085;29;19973;-71
2022/04/04 03:34:05;;;;;;;;;;;-3.60;99.90;;;;;;4942717;29;20397;-71
2022/04/04 03:36:36;;;;;;;;;;;-3.60;99.90;;;;;;4935341;29;19923;-71
2022/04/04 03:39:08;;;;;;;;;;;-3.70;99.90;;;;;;4918752;29;19933;-71
2022/04/04 03:41:35;;;;;;;;;;;-3.70;99.90;;;;;;4921110;29;19923;-71
2022/04/04 03:44:06;;;;;;;;;;;-3.60;99.90;;;;;;4937129;29;19994;-71
2022/04/04 03:46:38;;;;;;;;;;;-3.60;99.90;;;;;;4936545;29;19923;-71
2022/04/04 03:49:10;;;;;;;;;;;-3.60;99.90;;;;;;4933391;29;19922;-71
2022/04/04 03:51:37;;;;;;;;;;;-3.60;99.90;;;;;;4928191;29;20348;-71
2022/04/04 03:54:08;;;;;;;;;;;-3.70;99.90;;;;;;4949977;29;19927;-71
2022/04/04 03:56:35;;;;;;;;;;;-3.70;99.90;;;;;;4940262;29;19927;-71
2022/04/04 03:59:07;;;;;;;;;;;-3.70;99.90;;;;;;4933555;29;19935;-71
2022/04/04 04:01:39;;;;;;;;;;;-3.70;99.90;;;;;;4924294;29;20454;-71
2022/04/04 04:04:10;;;;;;;;;;;-3.70;99.90;;;;;;4925908;29;19927;-71
2022/04/04 04:06:42;;;;;;;;;;;-3.70;99.90;;;;;;4918385;29;19926;-71
2022/04/04 04:09:14;;;;;;;;;;;-3.70;99.90;;;;;;4930720;29;20293;-71
2022/04/04 04:11:41;;;;;;;;;;;-3.80;99.90;;;;;;4936682;29;19927;-72
2022/04/04 04:14:07;;;;;;;;;;;-3.80;99.90;;;;;;4946726;29;19968;-71
2022/04/04 04:16:34;;;;;;;;;;;-3.80;99.90;;;;;;4921722;29;20358;-71
2022/04/04 04:19:01;;;;;;;;;;;-3.90;99.90;;;;;;4918246;29;19927;-71
2022/04/04 04:21:35;;;;;;;;;;;-3.90;99.90;;;;;;4929938;29;20021;-71
2022/04/04 04:24:02;;;;;;;;;;;-3.90;99.90;;;;;;4918491;29;19944;-71
2022/04/04 04:26:34;;;;;;;;;;;-4.00;99.90;;;;;;4938642;29;20337;-71
2022/04/04 04:29:06;;;;;;;;;;;-4.00;99.90;;;;;;4918830;29;19922;-72
2022/04/04 04:31:38;;;;;;;;;;;-4.00;99.90;;;;;;4914654;29;20353;-72
2022/04/04 04:34:05;;;;;;;;;;;-4.00;99.90;;;;;;4940892;29;19985;-71
2022/04/04 04:36:39;;;;;;;;;;;-4.00;99.90;;;;;;4934537;29;19979;-71
2022/04/04 04:39:06;;;;;;;;;;;-4.00;99.90;;;;;;4919352;29;20271;-72
2022/04/04 04:41:33;;;;;;;;;;;-4.10;99.90;;;;;;4926046;29;19923;-72
2022/04/04 04:44:05;;;;;;;;;;;-4.10;99.90;;;;;;4933543;29;19926;-76
2022/04/04 04:46:37;;;;;;;;;;;-4.10;99.90;;;;;;4943594;29;19958;-71
2022/04/04 04:49:10;;;;;;;;;;;-4.10;99.90;;;;;;4956194;28;19961;-72
2022/04/04 04:51:41;;;;;;;;;;;-3.90;99.90;;;;;;4935110;28;19931;-72
2022/04/04 04:54:13;;;;;;;;;;;-3.80;99.90;;;;;;4938958;29;19923;-72
2022/04/04 04:56:40;;;;;;;;;;;-3.80;99.90;;;;;;4937897;29;19927;-72
2022/04/04 04:59:07;;;;;;;;;;;-3.80;99.90;;;;;;4921644;29;19950;-71
2022/04/04 05:01:33;;;;;;;;;;;-3.80;99.90;;;;;;4917310;29;19923;-72
2022/04/04 05:04:00;;;;;;;;;;;-3.80;99.90;;;;;;4944975;29;19926;-72
2022/04/04 05:06:32;;;;;;;;;;;-3.90;99.90;;;;;;4917555;29;19929;-71
2022/04/04 05:09:04;;;;;;;;;;;-3.90;99.90;;;;;;4942372;29;20274;-72
2022/04/04 05:11:35;;;;;;;;;;;-4.00;99.90;;;;;;4934560;29;19923;-72
2022/04/04 05:14:02;;;;;;;;;;;-4.00;99.90;;;;;;4940851;29;19969;-72
2022/04/04 05:16:34;;;;;;;;;;;-3.90;99.90;;;;;;4930770;29;20025;-72
2022/04/04 05:19:06;;;;;;;;;;;-3.90;99.90;;;;;;4937024;29;20361;-72
2022/04/04 05:21:38;;;;;;;;;;;-3.90;99.90;;;;;;4909418;29;20370;-72
2022/04/04 05:24:09;;;;;;;;;;;-3.90;99.90;;;;;;4936097;29;19930;-72
2022/04/04 05:26:36;;;;;;;;;;;-3.80;99.90;;;;;;4938963;28;19981;-72
2022/04/04 05:29:08;;;;;;;;;;;-3.80;99.90;;;;;;4932544;29;19927;-72
2022/04/04 05:31:39;;;;;;;;;;;-3.70;99.90;;;;;;4936072;28;19982;-72
2022/04/04 05:34:07;;;;;;;;;;;-3.70;99.90;;;;;;4932953;29;19931;-72
2022/04/04 05:36:39;;;;;;;;;;;-3.70;99.90;;;;;;4938078;29;20005;-72
2022/04/04 05:39:11;;;;;;;;;;;-3.70;99.90;;;;;;4929435;29;19990;-72
2022/04/04 05:41:42;;;;;;;;;;;-3.70;99.90;;;;;;4925431;29;19926;-72
2022/04/04 05:44:09;;;;;;;;;;;-3.70;99.90;;;;;;4926653;29;19935;-72
2022/04/04 05:46:41;;;;;;;;;;;-3.70;99.90;;;;;;4928278;29;19922;-71
2022/04/04 05:49:07;;;;;;;;;;;-3.60;99.90;;;;;;4937583;29;20389;-72
2022/04/04 05:51:34;;;;;;;;;;;-3.60;99.90;;;;;;4928702;28;19923;-72
2022/04/04 05:54:02;;;;;;;;;;;-3.50;99.90;;;;;;4929579;29;19977;-72
2022/04/04 05:56:29;;;;;;;;;;;-3.50;99.90;;;;;;4926836;29;20371;-72
2022/04/04 05:58:55;;;;;;;;;;;-3.40;99.90;;;;;;4929988;29;20000;-72
2022/04/04 06:01:27;;;;;;;;;;;-3.30;99.90;;;;;;4923468;29;19932;-72
2022/04/04 06:03:58;;;;;;;;;;;-3.30;99.90;;;;;;4932082;29;19923;-72
2022/04/04 06:06:30;;;;;;;;;;;-3.30;99.90;;;;;;4933546;29;19923;-72
2022/04/04 06:08:57;;;;;;;;;;;-3.30;99.90;;;;;;4934600;29;19929;-72
2022/04/04 06:11:24;;;;;;;;;;;-3.20;99.90;;;;;;4935176;28;19922;-72
2022/04/04 06:13:50;;;;;;;;;;;-3.20;99.90;;;;;;4931860;29;19922;-72
2022/04/04 06:16:23;;;;;;;;;;;-3.20;99.90;;;;;;4913615;29;19966;-72
2022/04/04 06:18:50;;;;;;;;;;;-3.10;99.90;;;;;;4930774;29;19933;-72
2022/04/04 06:21:22;;;;;;;;;;;-3.10;99.90;;;;;;4930837;28;19927;-72
2022/04/04 06:23:49;;;;;;;;;;;-2.80;99.90;;;;;;4932899;29;20279;-72
2022/04/04 06:26:15;;;;;;;;;;;-2.80;99.90;;;;;;4935786;29;19941;-72
2022/04/04 06:28:42;;;;;;;;;;;-2.70;99.90;;;;;;4914300;29;20022;-72
2022/04/04 06:31:14;;;;;;;;;;;-2.70;99.90;;;;;;4926026;29;19922;-73
2022/04/04 06:33:40;;;;;;;;;;;-2.60;99.90;;;;;;4937724;29;20716;-73
2022/04/04 06:36:07;;;;;;;;;;;-2.60;99.90;;;;;;4929518;29;19927;-72
2022/04/04 06:38:39;;;;;;;;;;;-2.60;99.90;;;;;;4941661;28;19922;-72
2022/04/04 06:41:11;;;;;;;;;;;-2.50;99.90;;;;;;4930305;29;20408;-72
2022/04/04 06:43:43;;;;;;;;;;;-2.50;99.90;;;;;;4914710;29;19922;-72
2022/04/04 06:46:11;;;;;;;;;;;-2.40;99.90;;;;;;4937752;29;19923;-72
2022/04/04 06:48:37;;;;;;;;;;;-2.40;99.90;;;;;;4936649;28;19929;-72
2022/04/04 06:51:05;;;;;;;;;;;-2.40;99.90;;;;;;4914767;29;19937;-72
2022/04/04 06:53:37;;;;;;;;;;;-2.40;99.90;;;;;;4930513;29;19929;-72
2022/04/04 06:56:09;;;;;;;;;;;-2.30;99.90;;;;;;4947811;28;19937;-72
2022/04/04 06:58:40;;;;;;;;;;;-2.20;99.90;;;;;;4922309;29;19999;-72
2022/04/04 07:01:12;;;;;;;;;;;-2.10;99.90;;;;;;4925174;29;19933;-72
2022/04/04 07:03:44;;;;;;;;;;;-2.00;99.90;;;;;;4921375;29;19936;-72
2022/04/04 07:06:10;;;;;;;;;;;-1.90;99.90;;;;;;4912605;29;19942;-71
2022/04/04 07:08:43;;;;;;;;;;;-1.50;99.90;;;;;;4931178;29;19933;-73
2022/04/04 07:11:10;;;;;;;;;;;-0.90;99.90;;;;;;4927138;29;19930;-72
2022/04/04 07:13:44;;;;;;;;;;;-0.40;99.90;;;;;;4917714;29;20147;-72
2022/04/04 07:16:11;;;;;;;;;;;-0.10;99.90;;;;;;4927129;29;19922;-72
2022/04/04 07:18:43;;;;;;;;;;;-0.10;99.90;;;;;;4915596;29;20034;-71
2022/04/04 07:21:15;;;;;;;;;;;-0.10;99.90;;;;;;4920681;29;19977;-72
2022/04/04 07:23:48;;;;;;;;;;;-0.20;99.90;;;;;;4928605;29;20084;-73
2022/04/04 07:26:19;;;;;;;;;;;-0.30;99.90;;;;;;4940361;29;19923;-72
2022/04/04 07:28:50;;;;;;;;;;;-0.40;99.90;;;;;;4921464;29;19929;-72
2022/04/04 07:31:17;;;;;;;;;;;-0.40;99.90;;;;;;4931434;29;19923;-72
2022/04/04 07:33:48;;;;;;;;;;;-0.40;99.90;;;;;;4910416;29;19923;-72
2022/04/04 07:36:20;;;;;;;;;;;-0.40;99.90;;;;;;4934261;29;19923;-72
2022/04/04 07:38:52;;;;;;;;;;;-0.40;99.90;;;;;;4933981;29;19922;-72
2022/04/04 07:41:24;;;;;;;;;;;-0.40;99.90;;;;;;4929285;29;20017;-72
2022/04/04 07:43:55;;;;;;;;;;;-0.30;99.90;;;;;;4931693;29;20376;-73
2022/04/04 07:46:22;;;;;;;;;;;-0.20;99.90;;;;;;4926195;29;20630;-72
2022/04/04 07:48:55;;;;;;;;;;;-0.10;99.90;;;;;;4933912;29;19923;-71
2022/04/04 07:51:26;;;;;;;;;;;-0.10;99.90;;;;;;4931338;29;20424;-71
2022/04/04 07:53:58;;;;;;;;;;;0.00;99.90;;;;;;4931125;29;19929;-72
2022/04/04 07:56:30;;;;;;;;;;;0.10;99.90;;;;;;4929442;29;19923;-71
2022/04/04 07:59:02;;;;;;;;;;;0.20;99.90;;;;;;4917527;29;19970;-72
2022/04/04 08:01:29;;;;;;;;;;;0.30;99.90;;;;;;4928299;29;19923;-71
2022/04/04 08:04:00;;;;;;;;;;;0.30;99.90;;;;;;4931108;29;20293;-72
2022/04/04 08:06:32;;;;;;;;;;;0.30;99.90;;;;;;4933639;29;19926;-71
2022/04/04 08:09:04;;;;;;;;;;;0.30;99.90;;;;;;4932439;29;20431;-72
2022/04/04 08:11:36;;;;;;;;;;;0.30;99.90;;;;;;4931175;29;19945;-72
2022/04/04 08:14:11;;;;;;;;;;;0.40;99.90;;;;;;4919084;29;19931;-71
2022/04/04 08:16:43;;;;;;;;;;;0.50;99.90;;;;;;4931231;29;20378;-72
2022/04/04 08:19:11;;;;;;;;;;;0.60;99.90;;;;;;4920741;29;20322;-71
2022/04/04 08:21:44;;;;;;;;;;;0.50;99.90;;;;;;4937800;29;20386;-71
2022/04/04 08:24:16;;;;;;;;;;;0.60;99.90;;;;;;4919887;29;19929;-71
2022/04/04 08:26:43;;;;;;;;;;;0.70;99.90;;;;;;4932486;29;20688;-71
2022/04/04 08:29:15;;;;;;;;;;;0.80;99.90;;;;;;4932636;29;19923;-71
2022/04/04 08:31:46;;;;;;;;;;;0.90;99.90;;;;;;4926639;29;19926;-71
2022/04/04 08:34:18;;;;;;;;;;;1.00;99.90;;;;;;4934309;29;19957;-72
2022/04/04 08:36:50;;;;;;;;;;;1.10;99.90;;;;;;4932377;29;19927;-72
2022/04/04 08:39:21;;;;;;;;;;;1.10;99.90;;;;;;4915240;29;19933;-72
2022/04/04 08:41:56;;;;;;;;;;;1.20;99.90;;;;;;4923847;29;19978;-72
2022/04/04 08:44:23;;;;;;;;;;;1.20;99.90;;;;;;4929470;29;19994;-72
2022/04/04 08:46:55;;;;;;;;;;;1.30;99.90;;;;;;4925547;29;19970;-71
2022/04/04 08:49:21;;;;;;;;;;;1.20;99.90;;;;;;4934786;29;19927;-72
2022/04/04 08:51:53;;;;;;;;;;;1.40;99.90;;;;;;4934260;29;19966;-71
2022/04/04 08:54:25;;;;;;;;;;;1.40;99.90;;;;;;4940888;29;19931;-72
2022/04/04 08:56:56;;;;;;;;;;;1.50;99.90;;;;;;4931745;29;20385;-71
2022/04/04 08:59:23;;;;;;;;;;;1.50;99.90;;;;;;4926086;29;19927;-71
2022/04/04 09:01:55;;;;;;;;;;;1.60;99.90;;;;;;4928820;29;19922;-71
2022/04/04 09:04:22;;;;;;;;;;;1.60;99.90;;;;;;4935589;29;19926;-71
2022/04/04 09:06:50;;;;;;;;;;;1.70;99.90;;;;;;4930444;29;19965;-72
2022/04/04 09:09:26;;;;;;;;;;;1.70;99.90;;;;;;4925902;29;19934;-72
2022/04/04 09:12:19;;;;;;;;;;;1.80;99.90;;;;;;4929942;29;19923;-73
2022/04/04 09:14:51;;;;;;;;;;;1.80;99.90;;;;;;4928583;29;19939;-72
2022/04/04 09:17:24;;;;;;;;;;;1.90;99.90;;;;;;4934786;29;20286;-73
2022/04/04 09:19:51;;;;;;;;;;;1.90;99.90;;;;;;4933186;29;20029;-72
2022/04/04 09:22:18;;;;;;;;;;;2.00;99.90;;;;;;4917616;29;19945;-72
2022/04/04 09:24:57;;;;;;;;;;;2.00;99.90;;;;;;4931131;29;20258;-71
2022/04/04 09:27:28;;;;;;;;;;;2.10;99.90;;;;;;4934343;29;20033;-72
2022/04/04 09:29:59;;;;;;;;;;;2.10;99.90;;;;;;4919120;29;19970;-72
2022/04/04 09:32:42;;;;;;;;;;;2.20;99.90;;;;;;4929253;29;20313;-71
2022/04/04 09:35:14;;;;;;;;;;;2.30;99.90;;;;;;4935379;29;20290;-71
2022/04/04 09:37:48;;;;;;;;;;;2.40;99.90;;;;;;4935799;29;19930;-71
2022/04/04 09:40:21;;;;;;;;;;;2.40;99.90;;;;;;4924290;29;19978;-72
2022/04/04 09:42:53;;;;;;;;;;;2.50;99.90;;;;;;4922555;29;19964;-72
2022/04/04 09:45:30;;;;;;;;;;;2.50;99.90;;;;;;4932272;29;19926;-72
2022/04/04 09:48:09;;;;;;;;;;;2.50;99.90;;;;;;4927699;29;19923;-71
2022/04/04 09:50:47;;;;;;;;;;;2.60;99.90;;;;;;4925870;29;20025;-71
2022/04/04 09:53:28;;;;;;;;;;;2.70;99.90;;;;;;4929756;29;20017;-71
2022/04/04 09:55:56;;;;;;;;;;;2.80;99.90;;;;;;4919655;29;19958;-71
2022/04/04 09:58:26;;;;;;;;;;;2.90;99.90;;;;;;4928001;29;20012;-72
2022/04/04 10:00:59;;;;;;;;;;;3.00;99.90;;;;;;4924170;29;19933;-72
2022/04/04 10:03:31;;;;;;;;;;;3.00;99.90;;;;;;4943948;29;19932;-72
2022/04/04 10:06:01;;;;;;;;;;;3.00;99.90;;;;;;4932322;29;19929;-71
2022/04/04 10:08:29;;;;;;;;;;;3.10;99.90;;;;;;4933436;29;20022;-72
2022/04/04 10:11:01;;;;;;;;;;;3.20;99.90;;;;;;4930828;29;19926;-72
2022/04/04 10:13:29;;;;;;;;;;;3.20;99.90;;;;;;4921652;29;19930;-71
2022/04/04 10:16:01;;;;;;;;;;;3.30;99.90;;;;;;4913849;29;19990;-72
2022/04/04 10:18:28;;;;;;;;;;;3.40;99.90;;;;;;4929362;29;19927;-71
2022/04/04 10:20:55;;;;;;;;;;;3.50;99.90;;;;;;4932105;29;20014;-72
2022/04/04 10:23:27;;;;;;;;;;;3.60;99.90;;;;;;4911250;29;19923;-72
2022/04/04 10:25:54;;;;;;;;;;;3.60;99.90;;;;;;4914065;29;19934;-72
2022/04/04 10:28:27;;;;;;;;;;;3.70;99.90;;;;;;4935970;29;20022;-72
2022/04/04 10:30:58;;;;;;;;;;;3.70;99.90;;;;;;4927094;29;19923;-72
2022/04/04 10:33:25;;;;;;;;;;;3.70;99.90;;;;;;4928863;29;19923;-72
2022/04/04 10:36:21;;;;;;;;;;;3.40;99.90;;;;;;4910222;29;19927;-72
2022/04/04 10:38:55;;;;;;;;;;;3.50;99.90;;;;;;4900990;29;19927;-72
2022/04/04 10:41:27;;;;;;;;;;;3.50;99.90;;;;;;4931612;28;19926;-71
2022/04/04 10:44:00;;;;;;;;;;;3.50;99.90;;;;;;4926649;29;19935;-72
2022/04/04 10:46:27;;;;;;;;;;;3.50;99.90;;;;;;4934284;29;19922;-71
2022/04/04 10:48:59;;;;;;;;;;;3.60;99.90;;;;;;4930911;29;19929;-72
2022/04/04 10:51:34;;;;;;;;;;;3.70;99.90;;;;;;4926767;28;20398;-71
2022/04/04 10:54:07;;;;;;;;;;;3.80;99.90;;;;;;4926366;29;19930;-72
2022/04/04 10:56:37;;;;;;;;;;;3.90;99.90;;;;;;4933954;29;19931;-72
2022/04/04 10:59:16;;;;;;;;;;;3.90;99.90;;;;;;4934177;29;19922;-72
2022/04/04 11:01:43;;;;;;;;;;;4.00;99.90;;;;;;4927606;29;19927;-71
2022/04/04 11:04:23;;;;;;;;;;;4.00;99.90;;;;;;4912353;29;19926;-72
2022/04/04 11:09:50;;;;;;;;;;;4.10;99.90;;;;;;4931037;29;20013;-71
2022/04/04 11:12:18;;;;;;;;;;;4.30;99.90;;;;;;4916721;29;19950;-71
2022/04/04 11:14:47;;;;;;;;;;;4.20;99.90;;;;;;4941022;29;19933;-71
2022/04/04 11:19:48;;;;;;;;;;;4.40;99.90;;;;;;4915608;29;19933;-71
2022/04/04 11:22:15;;;;;;;;;;;4.50;99.90;;;;;;4925958;29;19922;-71
2022/04/04 11:24:43;;;;;;;;;;;4.50;99.90;;;;;;4932089;29;19970;-71
2022/04/04 11:27:10;;;;;;;;;;;4.40;99.90;;;;;;4908820;29;19969;-71
2022/04/04 11:29:42;;;;;;;;;;;4.40;99.90;;;;;;4924050;29;19950;-70
2022/04/04 11:32:15;;;;;;;;;;;4.50;99.90;;;;;;4935200;28;19930;-69
2022/04/04 11:34:47;;;;;;;;;;;4.40;99.90;;;;;;4920556;29;19923;-70
2022/04/04 11:37:19;;;;;;;;;;;4.40;99.90;;;;;;4931715;29;20389;-71
2022/04/04 11:39:56;;;;;;;;;;;4.40;99.90;;;;;;4939172;29;20462;-71
2022/04/04 11:42:25;;;;;;;;;;;4.40;99.90;;;;;;4914879;29;19931;-71
2022/04/04 11:44:58;;;;;;;;;;;4.30;99.90;;;;;;4923205;29;19923;-71
2022/04/04 11:47:25;;;;;;;;;;;4.20;99.90;;;;;;4937227;29;19974;-71
2022/04/04 11:49:54;;;;;;;;;;;4.20;99.90;;;;;;4940862;29;19922;-71
2022/04/04 11:52:26;;;;;;;;;;;4.40;99.90;;;;;;4933357;29;20231;-71
2022/04/04 11:54:58;;;;;;;;;;;4.50;99.90;;;;;;4921377;29;19923;-71
2022/04/04 11:57:25;;;;;;;;;;;4.70;99.90;;;;;;4941749;29;20350;-71
2022/04/04 11:59:57;;;;;;;;;;;5.00;99.90;;;;;;4940510;28;20332;-71
2022/04/04 12:02:29;;;;;;;;;;;5.20;99.90;;;;;;4934497;28;20013;-70
2022/04/04 12:05:02;;;;;;;;;;;5.20;99.90;;;;;;4931975;29;19926;-69
2022/04/04 12:07:32;;;;;;;;;;;5.40;99.90;;;;;;4923393;29;19953;-70
2022/04/04 12:10:04;;;;;;;;;;;5.70;99.90;;;;;;4924486;28;19937;-70
2022/04/04 12:12:31;;;;;;;;;;;5.70;99.90;;;;;;4915184;29;19927;-69
2022/04/04 12:14:57;;;;;;;;;;;5.60;99.90;;;;;;4931323;29;19931;-71
2022/04/04 12:17:24;;;;;;;;;;;5.60;99.90;;;;;;4952598;28;20030;-70
2022/04/04 12:19:56;;;;;;;;;;;5.60;99.90;;;;;;4921479;29;19922;-70
2022/04/04 12:25:24;;;;;;;;;;;5.60;99.90;;;;;;4928897;29;19929;-69
2022/04/04 12:28:00;;;;;;;;;;;5.70;99.90;;;;;;4914211;29;19923;-71
2022/04/04 12:30:36;;;;;;;;;;;5.70;99.90;;;;;;4900242;29;20034;-71
2022/04/04 12:33:08;;;;;;;;;;;5.70;99.90;;;;;;4930054;29;19926;-71
2022/04/04 12:35:44;;;;;;;;;;;5.60;99.90;;;;;;4931898;29;19927;-71
2022/04/04 12:38:22;;;;;;;;;;;5.40;99.90;;;;;;4944827;29;19922;-71
2022/04/04 12:41:02;;;;;;;;;;;5.50;99.90;;;;;;4942894;28;19922;-69
2022/04/04 12:43:34;;;;;;;;;;;5.50;99.90;;;;;;4937949;29;20403;-70
2022/04/04 12:46:01;;;;;;;;;;;5.70;99.90;;;;;;4932071;28;20352;-71
2022/04/04 12:48:39;;;;;;;;;;;5.60;99.90;;;;;;4918941;29;19933;-71
2022/04/04 12:51:24;;;;;;;;;;;5.70;99.90;;;;;;4925958;29;19930;-69
2022/04/04 12:53:56;;;;;;;;;;;5.80;99.90;;;;;;4932429;29;19929;-71
2022/04/04 12:56:31;;;;;;;;;;;5.80;99.90;;;;;;4918896;29;19926;-71
2022/04/04 12:59:08;;;;;;;;;;;6.10;99.90;;;;;;4932323;29;19933;-69
2022/04/04 13:01:39;;;;;;;;;;;6.20;99.90;;;;;;4928728;29;19927;-70
2022/04/04 13:04:17;;;;;;;;;;;6.30;99.90;;;;;;4944459;28;19929;-71
2022/04/04 13:06:49;;;;;;;;;;;6.30;99.90;;;;;;4938095;29;19923;-71
2022/04/04 13:09:25;;;;;;;;;;;6.00;99.90;;;;;;4943836;28;19945;-71
2022/04/04 13:11:58;;;;;;;;;;;6.00;99.90;;;;;;4939564;29;20329;-71
2022/04/04 13:14:25;;;;;;;;;;;5.90;99.90;;;;;;4936078;29;19923;-71
2022/04/04 13:17:03;;;;;;;;;;;5.90;99.90;;;;;;4933066;29;19932;-71
2022/04/04 13:19:30;;;;;;;;;;;5.90;99.90;;;;;;4930020;29;19927;-71
2022/04/04 13:22:02;;;;;;;;;;;5.80;99.90;;;;;;4937413;28;19923;-71
2022/04/04 13:24:34;;;;;;;;;;;5.70;99.90;;;;;;4939065;29;20341;-71
2022/04/04 13:27:00;;;;;;;;;;;5.80;99.90;;;;;;4942223;29;19931;-72
2022/04/04 13:29:27;;;;;;;;;;;6.00;99.90;;;;;;4932805;29;20013;-71
2022/04/04 13:31:58;;;;;;;;;;;6.00;99.90;;;;;;4931107;29;20030;-72
2022/04/04 13:34:30;;;;;;;;;;;6.00;99.90;;;;;;4931451;29;20360;-71
2022/04/04 13:37:02;;;;;;;;;;;6.00;99.90;;;;;;4930436;29;19999;-70
2022/04/04 13:39:34;;;;;;;;;;;6.00;99.90;;;;;;4942694;29;19931;-71
2022/04/04 13:42:03;;;;;;;;;;;6.20;99.90;;;;;;4929030;29;19923;-72
2022/04/04 13:44:36;;;;;;;;;;;6.40;99.90;;;;;;4928822;29;19922;-72
2022/04/04 13:47:03;;;;;;;;;;;6.50;99.90;;;;;;4916765;29;19942;-71
2022/04/04 13:49:30;;;;;;;;;;;6.50;99.90;;;;;;4933751;29;19929;-72
2022/04/04 13:51:56;;;;;;;;;;;6.70;99.90;;;;;;4925114;29;20361;-71
2022/04/04 13:54:23;;;;;;;;;;;6.80;99.90;;;;;;4917317;29;19926;-71
2022/04/04 13:56:50;;;;;;;;;;;6.80;99.90;;;;;;4931329;29;19970;-71
2022/04/04 13:59:22;;;;;;;;;;;6.80;99.90;;;;;;4915396;29;19929;-71
2022/04/04 14:01:48;;;;;;;;;;;6.70;99.90;;;;;;4918100;29;19933;-72
2022/04/04 14:04:20;;;;;;;;;;;6.70;99.90;;;;;;4926151;29;19929;-71
2022/04/04 14:06:46;;;;;;;;;;;6.70;99.90;;;;;;4917672;29;20029;-71
2022/04/04 14:09:18;;;;;;;;;;;6.80;99.90;;;;;;4933755;29;20005;-70
2022/04/04 14:11:50;;;;;;;;;;;6.70;99.90;;;;;;4916888;29;19922;-71
2022/04/04 14:14:21;;;;;;;;;;;6.80;99.90;;;;;;4918274;29;19929;-71
2022/04/04 14:16:49;;;;;;;;;;;6.90;99.90;;;;;;4930096;29;19933;-72
2022/04/04 14:19:16;;;;;;;;;;;7.00;99.90;;;;;;4930538;29;19923;-72
2022/04/04 14:21:42;;;;;;;;;;;7.00;99.90;;;;;;4929028;29;19929;-72
2022/04/04 14:24:14;;;;;;;;;;;7.10;99.90;;;;;;4929941;29;20436;-71
2022/04/04 14:26:41;;;;;;;;;;;7.10;99.90;;;;;;4934954;28;19927;-70
2022/04/04 14:29:08;;;;;;;;;;;7.20;99.90;;;;;;4938450;29;19930;-70
2022/04/04 14:31:35;;;;;;;;;;;7.40;99.90;;;;;;4930651;29;20004;-72
2022/04/04 14:34:07;;;;;;;;;;;7.40;99.90;;;;;;4932339;29;20437;-72
2022/04/04 14:36:39;;;;;;;;;;;7.30;99.90;;;;;;4933088;29;19922;-71
2022/04/04 14:39:07;;;;;;;;;;;7.40;99.90;;;;;;4950719;28;19922;-71
2022/04/04 14:41:34;;;;;;;;;;;7.60;99.90;;;;;;4934744;28;19923;-70
2022/04/04 14:44:01;;;;;;;;;;;7.60;99.90;;;;;;4930540;29;20437;-71
2022/04/04 14:46:35;;;;;;;;;;;7.70;99.90;;;;;;4937794;29;20361;-71
2022/04/04 14:49:02;;;;;;;;;;;7.90;99.90;;;;;;4939825;29;19997;-71
2022/04/04 14:51:33;;;;;;;;;;;7.90;99.90;;;;;;4913604;29;19950;-71